sensor_id;sensor_type;location;lat;lon;timestamp;P1;durP1;ratioP1;P2;durP2;ratioP2
79792;SDS011;69279;49.072;17.462;2023-08-01T00:00:34;4.55;;;1.90;;
79792;SDS011;69279;49.072;17.462;2023-08-01T00:02:59;4.30;;;2.22;;
79792;SDS011;69279;49.072;17.462;2023-08-01T00:05:25;6.00;;;2.25;;
79792;SDS011;69279;49.072;17.462;2023-08-01T00:07:51;5.05;;;2.00;;
79792;SDS011;69279;49.072;17.462;2023-08-01T00:10:17;4.22;;;1.83;;
79792;SDS011;69279;49.072;17.462;2023-08-01T00:12:42;4.68;;;2.25;;
79792;SDS011;69279;49.072;17.462;2023-08-01T00:15:08;5.05;;;2.05;;
79792;SDS011;69279;49.072;17.462;2023-08-01T00:17:34;3.83;;;1.98;;
79792;SDS011;69279;49.072;17.462;2023-08-01T00:20:00;4.35;;;2.03;;
79792;SDS011;69279;49.072;17.462;2023-08-01T00:22:26;6.60;;;2.78;;
79792;SDS011;69279;49.072;17.462;2023-08-01T00:24:53;6.03;;;2.20;;
79792;SDS011;69279;49.072;17.462;2023-08-01T00:27:19;5.50;;;1.73;;
79792;SDS011;69279;49.072;17.462;2023-08-01T00:29:44;3.70;;;1.88;;
79792;SDS011;69279;49.072;17.462;2023-08-01T00:32:11;3.08;;;1.75;;
79792;SDS011;69279;49.072;17.462;2023-08-01T00:34:36;3.88;;;2.20;;
79792;SDS011;69279;49.072;17.462;2023-08-01T00:37:02;3.92;;;2.08;;
79792;SDS011;69279;49.072;17.462;2023-08-01T00:39:27;2.83;;;1.60;;
79792;SDS011;69279;49.072;17.462;2023-08-01T00:41:53;4.47;;;2.00;;
79792;SDS011;69279;49.072;17.462;2023-08-01T00:44:18;4.03;;;2.20;;
79792;SDS011;69279;49.072;17.462;2023-08-01T00:46:43;5.43;;;2.00;;
79792;SDS011;69279;49.072;17.462;2023-08-01T00:49:09;5.28;;;2.13;;
79792;SDS011;69279;49.072;17.462;2023-08-01T00:51:35;4.40;;;1.92;;
79792;SDS011;69279;49.072;17.462;2023-08-01T00:54:00;3.65;;;1.80;;
79792;SDS011;69279;49.072;17.462;2023-08-01T00:56:27;4.65;;;1.80;;
79792;SDS011;69279;49.072;17.462;2023-08-01T00:58:52;3.78;;;1.60;;
79792;SDS011;69279;49.072;17.462;2023-08-01T01:01:17;3.65;;;1.67;;
79792;SDS011;69279;49.072;17.462;2023-08-01T01:03:44;6.53;;;1.75;;
79792;SDS011;69279;49.072;17.462;2023-08-01T01:06:24;3.97;;;1.42;;
79792;SDS011;69279;49.072;17.462;2023-08-01T01:08:55;4.78;;;1.52;;
79792;SDS011;69279;49.072;17.462;2023-08-01T01:11:21;5.93;;;1.85;;
79792;SDS011;69279;49.072;17.462;2023-08-01T01:13:46;3.40;;;1.40;;
79792;SDS011;69279;49.072;17.462;2023-08-01T01:16:12;3.45;;;1.67;;
79792;SDS011;69279;49.072;17.462;2023-08-01T01:18:37;2.72;;;1.95;;
79792;SDS011;69279;49.072;17.462;2023-08-01T01:21:03;2.42;;;1.60;;
79792;SDS011;69279;49.072;17.462;2023-08-01T01:23:28;2.53;;;1.50;;
79792;SDS011;69279;49.072;17.462;2023-08-01T01:25:54;3.58;;;1.60;;
79792;SDS011;69279;49.072;17.462;2023-08-01T01:28:21;3.17;;;1.98;;
79792;SDS011;69279;49.072;17.462;2023-08-01T01:30:47;2.35;;;1.25;;
79792;SDS011;69279;49.072;17.462;2023-08-01T01:33:13;3.53;;;1.90;;
79792;SDS011;69279;49.072;17.462;2023-08-01T01:35:40;4.00;;;1.42;;
79792;SDS011;69279;49.072;17.462;2023-08-01T01:38:06;3.35;;;1.67;;
79792;SDS011;69279;49.072;17.462;2023-08-01T01:40:32;5.00;;;1.90;;
79792;SDS011;69279;49.072;17.462;2023-08-01T01:42:58;3.13;;;1.40;;
79792;SDS011;69279;49.072;17.462;2023-08-01T01:45:25;3.08;;;1.60;;
79792;SDS011;69279;49.072;17.462;2023-08-01T01:47:50;5.47;;;2.30;;
79792;SDS011;69279;49.072;17.462;2023-08-01T01:50:16;3.33;;;1.75;;
79792;SDS011;69279;49.072;17.462;2023-08-01T01:52:42;3.53;;;1.83;;
79792;SDS011;69279;49.072;17.462;2023-08-01T01:55:08;4.22;;;1.58;;
79792;SDS011;69279;49.072;17.462;2023-08-01T01:57:33;3.72;;;1.90;;
79792;SDS011;69279;49.072;17.462;2023-08-01T02:00:01;4.05;;;1.50;;
79792;SDS011;69279;49.072;17.462;2023-08-01T02:02:26;5.10;;;2.05;;
79792;SDS011;69279;49.072;17.462;2023-08-01T02:04:52;3.97;;;2.13;;
79792;SDS011;69279;49.072;17.462;2023-08-01T02:07:17;3.30;;;1.45;;
79792;SDS011;69279;49.072;17.462;2023-08-01T02:09:43;3.03;;;1.83;;
79792;SDS011;69279;49.072;17.462;2023-08-01T02:12:08;3.42;;;1.70;;
79792;SDS011;69279;49.072;17.462;2023-08-01T02:14:35;3.72;;;1.75;;
79792;SDS011;69279;49.072;17.462;2023-08-01T02:17:02;4.18;;;1.77;;
79792;SDS011;69279;49.072;17.462;2023-08-01T02:19:28;3.65;;;1.83;;
79792;SDS011;69279;49.072;17.462;2023-08-01T02:21:53;2.78;;;1.77;;
79792;SDS011;69279;49.072;17.462;2023-08-01T02:24:19;3.08;;;1.77;;
79792;SDS011;69279;49.072;17.462;2023-08-01T02:26:45;3.10;;;2.00;;
79792;SDS011;69279;49.072;17.462;2023-08-01T02:29:10;2.67;;;1.65;;
79792;SDS011;69279;49.072;17.462;2023-08-01T02:31:36;4.68;;;2.22;;
79792;SDS011;69279;49.072;17.462;2023-08-01T02:34:01;3.03;;;1.73;;
79792;SDS011;69279;49.072;17.462;2023-08-01T02:36:27;2.85;;;1.80;;
79792;SDS011;69279;49.072;17.462;2023-08-01T02:38:52;5.05;;;1.73;;
79792;SDS011;69279;49.072;17.462;2023-08-01T02:41:17;2.83;;;1.52;;
79792;SDS011;69279;49.072;17.462;2023-08-01T02:43:43;4.07;;;1.85;;
79792;SDS011;69279;49.072;17.462;2023-08-01T02:46:08;3.67;;;1.75;;
79792;SDS011;69279;49.072;17.462;2023-08-01T02:48:33;2.75;;;1.80;;
79792;SDS011;69279;49.072;17.462;2023-08-01T02:51:00;4.88;;;1.70;;
79792;SDS011;69279;49.072;17.462;2023-08-01T02:53:26;2.75;;;1.80;;
79792;SDS011;69279;49.072;17.462;2023-08-01T02:55:51;3.60;;;1.88;;
79792;SDS011;69279;49.072;17.462;2023-08-01T02:58:16;2.67;;;1.95;;
79792;SDS011;69279;49.072;17.462;2023-08-01T03:00:42;3.95;;;2.10;;
79792;SDS011;69279;49.072;17.462;2023-08-01T03:03:07;3.58;;;2.08;;
79792;SDS011;69279;49.072;17.462;2023-08-01T03:05:35;2.72;;;1.80;;
79792;SDS011;69279;49.072;17.462;2023-08-01T03:08:01;5.45;;;2.30;;
79792;SDS011;69279;49.072;17.462;2023-08-01T03:10:26;4.03;;;1.90;;
79792;SDS011;69279;49.072;17.462;2023-08-01T03:12:51;4.68;;;2.33;;
79792;SDS011;69279;49.072;17.462;2023-08-01T03:15:17;4.15;;;2.00;;
79792;SDS011;69279;49.072;17.462;2023-08-01T03:17:42;4.28;;;2.00;;
79792;SDS011;69279;49.072;17.462;2023-08-01T03:20:08;3.95;;;1.88;;
79792;SDS011;69279;49.072;17.462;2023-08-01T03:22:39;4.72;;;1.83;;
79792;SDS011;69279;49.072;17.462;2023-08-01T03:25:05;3.55;;;1.92;;
79792;SDS011;69279;49.072;17.462;2023-08-01T03:27:34;4.05;;;1.83;;
79792;SDS011;69279;49.072;17.462;2023-08-01T03:30:00;4.10;;;1.55;;
79792;SDS011;69279;49.072;17.462;2023-08-01T03:32:25;5.90;;;1.77;;
79792;SDS011;69279;49.072;17.462;2023-08-01T03:34:51;3.70;;;1.83;;
79792;SDS011;69279;49.072;17.462;2023-08-01T03:37:16;3.88;;;2.03;;
79792;SDS011;69279;49.072;17.462;2023-08-01T03:39:43;3.88;;;1.83;;
79792;SDS011;69279;49.072;17.462;2023-08-01T03:42:08;3.33;;;2.10;;
79792;SDS011;69279;49.072;17.462;2023-08-01T03:44:33;3.67;;;1.70;;
79792;SDS011;69279;49.072;17.462;2023-08-01T03:46:59;4.85;;;2.53;;
79792;SDS011;69279;49.072;17.462;2023-08-01T03:49:24;2.70;;;1.70;;
79792;SDS011;69279;49.072;17.462;2023-08-01T03:51:50;4.60;;;2.03;;
79792;SDS011;69279;49.072;17.462;2023-08-01T03:54:16;6.80;;;2.25;;
79792;SDS011;69279;49.072;17.462;2023-08-01T03:56:41;3.72;;;2.00;;
79792;SDS011;69279;49.072;17.462;2023-08-01T03:59:09;5.60;;;2.28;;
79792;SDS011;69279;49.072;17.462;2023-08-01T04:01:35;3.33;;;1.98;;
79792;SDS011;69279;49.072;17.462;2023-08-01T04:04:01;3.10;;;1.80;;
79792;SDS011;69279;49.072;17.462;2023-08-01T04:06:26;4.57;;;1.80;;
79792;SDS011;69279;49.072;17.462;2023-08-01T04:08:51;2.30;;;2.00;;
79792;SDS011;69279;49.072;17.462;2023-08-01T04:11:17;3.70;;;1.80;;
79792;SDS011;69279;49.072;17.462;2023-08-01T04:13:42;3.13;;;2.45;;
79792;SDS011;69279;49.072;17.462;2023-08-01T04:16:08;3.72;;;1.77;;
79792;SDS011;69279;49.072;17.462;2023-08-01T04:18:33;3.75;;;1.70;;
79792;SDS011;69279;49.072;17.462;2023-08-01T04:21:00;4.93;;;2.20;;
79792;SDS011;69279;49.072;17.462;2023-08-01T04:23:25;4.68;;;2.63;;
79792;SDS011;69279;49.072;17.462;2023-08-01T04:25:50;5.40;;;2.67;;
79792;SDS011;69279;49.072;17.462;2023-08-01T04:28:16;6.32;;;2.42;;
79792;SDS011;69279;49.072;17.462;2023-08-01T04:30:47;6.78;;;2.35;;
79792;SDS011;69279;49.072;17.462;2023-08-01T04:33:14;3.38;;;2.08;;
79792;SDS011;69279;49.072;17.462;2023-08-01T04:35:40;4.47;;;2.42;;
79792;SDS011;69279;49.072;17.462;2023-08-01T04:38:05;3.60;;;2.38;;
79792;SDS011;69279;49.072;17.462;2023-08-01T04:40:30;3.95;;;2.22;;
79792;SDS011;69279;49.072;17.462;2023-08-01T04:42:56;3.95;;;2.22;;
79792;SDS011;69279;49.072;17.462;2023-08-01T04:45:21;5.38;;;2.03;;
79792;SDS011;69279;49.072;17.462;2023-08-01T04:47:47;5.93;;;2.40;;
79792;SDS011;69279;49.072;17.462;2023-08-01T04:50:12;5.75;;;2.38;;
79792;SDS011;69279;49.072;17.462;2023-08-01T04:52:37;4.93;;;2.80;;
79792;SDS011;69279;49.072;17.462;2023-08-01T04:55:03;5.07;;;2.17;;
79792;SDS011;69279;49.072;17.462;2023-08-01T04:57:29;4.35;;;2.50;;
79792;SDS011;69279;49.072;17.462;2023-08-01T04:59:54;2.72;;;2.00;;
79792;SDS011;69279;49.072;17.462;2023-08-01T05:02:21;4.40;;;2.20;;
79792;SDS011;69279;49.072;17.462;2023-08-01T05:04:46;5.78;;;2.00;;
79792;SDS011;69279;49.072;17.462;2023-08-01T05:07:12;2.78;;;1.95;;
79792;SDS011;69279;49.072;17.462;2023-08-01T05:09:37;3.78;;;1.92;;
79792;SDS011;69279;49.072;17.462;2023-08-01T05:12:03;4.03;;;2.38;;
79792;SDS011;69279;49.072;17.462;2023-08-01T05:14:28;4.78;;;2.50;;
79792;SDS011;69279;49.072;17.462;2023-08-01T05:16:54;3.55;;;2.20;;
79792;SDS011;69279;49.072;17.462;2023-08-01T05:19:19;4.15;;;2.63;;
79792;SDS011;69279;49.072;17.462;2023-08-01T05:21:45;4.65;;;2.40;;
79792;SDS011;69279;49.072;17.462;2023-08-01T05:24:11;6.65;;;2.33;;
79792;SDS011;69279;49.072;17.462;2023-08-01T05:26:36;4.95;;;2.30;;
79792;SDS011;69279;49.072;17.462;2023-08-01T05:29:02;6.18;;;2.88;;
79792;SDS011;69279;49.072;17.462;2023-08-01T05:31:28;5.18;;;2.70;;
79792;SDS011;69279;49.072;17.462;2023-08-01T05:33:53;5.43;;;2.78;;
79792;SDS011;69279;49.072;17.462;2023-08-01T05:36:19;5.55;;;2.92;;
79792;SDS011;69279;49.072;17.462;2023-08-01T05:38:44;7.10;;;3.10;;
79792;SDS011;69279;49.072;17.462;2023-08-01T05:41:09;5.80;;;3.17;;
79792;SDS011;69279;49.072;17.462;2023-08-01T05:43:35;4.45;;;2.97;;
79792;SDS011;69279;49.072;17.462;2023-08-01T05:46:00;3.30;;;2.33;;
79792;SDS011;69279;49.072;17.462;2023-08-01T05:48:26;5.63;;;2.63;;
79792;SDS011;69279;49.072;17.462;2023-08-01T05:50:52;4.85;;;2.72;;
79792;SDS011;69279;49.072;17.462;2023-08-01T05:53:20;5.20;;;2.65;;
79792;SDS011;69279;49.072;17.462;2023-08-01T05:55:47;4.80;;;3.03;;
79792;SDS011;69279;49.072;17.462;2023-08-01T05:58:12;5.68;;;3.60;;
79792;SDS011;69279;49.072;17.462;2023-08-01T06:00:38;4.18;;;2.63;;
79792;SDS011;69279;49.072;17.462;2023-08-01T06:03:03;4.80;;;3.10;;
79792;SDS011;69279;49.072;17.462;2023-08-01T06:05:29;4.07;;;3.13;;
79792;SDS011;69279;49.072;17.462;2023-08-01T06:07:56;9.00;;;3.67;;
79792;SDS011;69279;49.072;17.462;2023-08-01T06:10:21;5.28;;;3.72;;
79792;SDS011;69279;49.072;17.462;2023-08-01T06:12:47;6.28;;;3.70;;
79792;SDS011;69279;49.072;17.462;2023-08-01T06:15:12;5.63;;;3.30;;
79792;SDS011;69279;49.072;17.462;2023-08-01T06:17:38;5.45;;;3.47;;
79792;SDS011;69279;49.072;17.462;2023-08-01T06:20:03;6.38;;;3.40;;
79792;SDS011;69279;49.072;17.462;2023-08-01T06:22:30;8.50;;;3.42;;
79792;SDS011;69279;49.072;17.462;2023-08-01T06:24:56;4.15;;;2.85;;
79792;SDS011;69279;49.072;17.462;2023-08-01T06:27:21;4.38;;;3.10;;
79792;SDS011;69279;49.072;17.462;2023-08-01T06:29:47;5.63;;;3.28;;
79792;SDS011;69279;49.072;17.462;2023-08-01T06:32:13;3.95;;;3.20;;
79792;SDS011;69279;49.072;17.462;2023-08-01T06:34:39;5.38;;;3.30;;
79792;SDS011;69279;49.072;17.462;2023-08-01T06:37:04;4.47;;;2.92;;
79792;SDS011;69279;49.072;17.462;2023-08-01T06:39:30;4.82;;;2.80;;
79792;SDS011;69279;49.072;17.462;2023-08-01T06:41:55;8.90;;;3.00;;
79792;SDS011;69279;49.072;17.462;2023-08-01T06:44:21;6.65;;;2.70;;
79792;SDS011;69279;49.072;17.462;2023-08-01T06:46:46;8.93;;;3.08;;
79792;SDS011;69279;49.072;17.462;2023-08-01T06:49:11;4.78;;;2.65;;
79792;SDS011;69279;49.072;17.462;2023-08-01T06:51:37;5.55;;;2.83;;
79792;SDS011;69279;49.072;17.462;2023-08-01T06:54:02;10.68;;;3.35;;
79792;SDS011;69279;49.072;17.462;2023-08-01T06:56:28;10.32;;;2.83;;
79792;SDS011;69279;49.072;17.462;2023-08-01T06:58:54;11.82;;;3.60;;
79792;SDS011;69279;49.072;17.462;2023-08-01T07:01:19;8.75;;;3.70;;
79792;SDS011;69279;49.072;17.462;2023-08-01T07:03:45;4.60;;;2.67;;
79792;SDS011;69279;49.072;17.462;2023-08-01T07:06:11;5.45;;;3.00;;
79792;SDS011;69279;49.072;17.462;2023-08-01T07:08:36;6.28;;;2.80;;
79792;SDS011;69279;49.072;17.462;2023-08-01T07:11:01;8.55;;;3.13;;
79792;SDS011;69279;49.072;17.462;2023-08-01T07:13:27;4.65;;;2.97;;
79792;SDS011;69279;49.072;17.462;2023-08-01T07:15:53;3.55;;;2.63;;
79792;SDS011;69279;49.072;17.462;2023-08-01T07:18:18;3.95;;;2.58;;
79792;SDS011;69279;49.072;17.462;2023-08-01T07:20:44;4.53;;;2.55;;
79792;SDS011;69279;49.072;17.462;2023-08-01T07:23:10;4.03;;;2.85;;
79792;SDS011;69279;49.072;17.462;2023-08-01T07:25:35;4.47;;;3.17;;
79792;SDS011;69279;49.072;17.462;2023-08-01T07:28:01;4.15;;;2.85;;
79792;SDS011;69279;49.072;17.462;2023-08-01T07:30:27;5.75;;;2.78;;
79792;SDS011;69279;49.072;17.462;2023-08-01T07:32:53;4.15;;;2.58;;
79792;SDS011;69279;49.072;17.462;2023-08-01T07:35:18;4.72;;;2.83;;
79792;SDS011;69279;49.072;17.462;2023-08-01T07:37:44;4.05;;;2.97;;
79792;SDS011;69279;49.072;17.462;2023-08-01T07:40:09;3.40;;;2.42;;
79792;SDS011;69279;49.072;17.462;2023-08-01T07:42:35;4.45;;;2.88;;
79792;SDS011;69279;49.072;17.462;2023-08-01T07:45:00;3.00;;;2.63;;
79792;SDS011;69279;49.072;17.462;2023-08-01T07:47:26;3.95;;;2.78;;
79792;SDS011;69279;49.072;17.462;2023-08-01T07:49:51;4.47;;;2.80;;
79792;SDS011;69279;49.072;17.462;2023-08-01T07:52:17;3.50;;;2.78;;
79792;SDS011;69279;49.072;17.462;2023-08-01T07:54:42;4.70;;;2.83;;
79792;SDS011;69279;49.072;17.462;2023-08-01T07:57:08;3.30;;;2.53;;
79792;SDS011;69279;49.072;17.462;2023-08-01T07:59:33;3.15;;;2.40;;
79792;SDS011;69279;49.072;17.462;2023-08-01T08:01:59;3.63;;;2.65;;
79792;SDS011;69279;49.072;17.462;2023-08-01T08:04:24;5.22;;;2.97;;
79792;SDS011;69279;49.072;17.462;2023-08-01T08:06:50;6.70;;;3.10;;
79792;SDS011;69279;49.072;17.462;2023-08-01T08:09:18;10.00;;;3.58;;
79792;SDS011;69279;49.072;17.462;2023-08-01T08:11:43;7.65;;;3.47;;
79792;SDS011;69279;49.072;17.462;2023-08-01T08:14:09;5.15;;;3.08;;
79792;SDS011;69279;49.072;17.462;2023-08-01T08:16:36;8.82;;;3.15;;
79792;SDS011;69279;49.072;17.462;2023-08-01T08:19:01;8.13;;;2.92;;
79792;SDS011;69279;49.072;17.462;2023-08-01T08:21:27;5.05;;;2.85;;
79792;SDS011;69279;49.072;17.462;2023-08-01T08:23:53;6.13;;;3.33;;
79792;SDS011;69279;49.072;17.462;2023-08-01T08:26:19;5.57;;;3.25;;
79792;SDS011;69279;49.072;17.462;2023-08-01T08:28:44;5.72;;;3.08;;
79792;SDS011;69279;49.072;17.462;2023-08-01T08:31:10;6.88;;;3.67;;
79792;SDS011;69279;49.072;17.462;2023-08-01T08:33:35;5.18;;;3.50;;
79792;SDS011;69279;49.072;17.462;2023-08-01T08:36:01;5.75;;;4.03;;
79792;SDS011;69279;49.072;17.462;2023-08-01T08:38:26;7.50;;;3.70;;
79792;SDS011;69279;49.072;17.462;2023-08-01T08:40:55;5.32;;;3.53;;
79792;SDS011;69279;49.072;17.462;2023-08-01T08:43:35;6.05;;;3.28;;
79792;SDS011;69279;49.072;17.462;2023-08-01T08:46:03;6.68;;;3.60;;
79792;SDS011;69279;49.072;17.462;2023-08-01T08:48:30;5.93;;;3.83;;
79792;SDS011;69279;49.072;17.462;2023-08-01T08:51:00;7.13;;;3.67;;
79792;SDS011;69279;49.072;17.462;2023-08-01T08:53:26;6.47;;;4.18;;
79792;SDS011;69279;49.072;17.462;2023-08-01T08:55:52;6.18;;;3.90;;
79792;SDS011;69279;49.072;17.462;2023-08-01T08:58:18;6.82;;;3.78;;
79792;SDS011;69279;49.072;17.462;2023-08-01T09:00:45;6.15;;;3.83;;
79792;SDS011;69279;49.072;17.462;2023-08-01T09:03:12;6.38;;;3.80;;
79792;SDS011;69279;49.072;17.462;2023-08-01T09:05:46;6.00;;;3.80;;
79792;SDS011;69279;49.072;17.462;2023-08-01T09:08:18;5.70;;;3.72;;
79792;SDS011;69279;49.072;17.462;2023-08-01T09:10:46;5.50;;;3.63;;
79792;SDS011;69279;49.072;17.462;2023-08-01T09:13:11;6.13;;;3.40;;
79792;SDS011;69279;49.072;17.462;2023-08-01T09:15:37;6.07;;;3.60;;
79792;SDS011;69279;49.072;17.462;2023-08-01T09:18:08;6.32;;;4.20;;
79792;SDS011;69279;49.072;17.462;2023-08-01T09:20:44;4.90;;;3.80;;
79792;SDS011;69279;49.072;17.462;2023-08-01T09:23:15;6.13;;;3.83;;
79792;SDS011;69279;49.072;17.462;2023-08-01T09:25:41;5.55;;;4.50;;
79792;SDS011;69279;49.072;17.462;2023-08-01T09:30:47;6.70;;;4.45;;
79792;SDS011;69279;49.072;17.462;2023-08-01T09:33:17;6.22;;;3.72;;
79792;SDS011;69279;49.072;17.462;2023-08-01T09:35:43;6.57;;;3.78;;
79792;SDS011;69279;49.072;17.462;2023-08-01T09:38:13;5.53;;;3.78;;
79792;SDS011;69279;49.072;17.462;2023-08-01T09:40:41;5.13;;;3.85;;
79792;SDS011;69279;49.072;17.462;2023-08-01T09:43:07;6.45;;;3.95;;
79792;SDS011;69279;49.072;17.462;2023-08-01T09:45:32;5.47;;;4.10;;
79792;SDS011;69279;49.072;17.462;2023-08-01T09:47:59;6.43;;;4.03;;
79792;SDS011;69279;49.072;17.462;2023-08-01T09:50:25;6.57;;;4.75;;
79792;SDS011;69279;49.072;17.462;2023-08-01T09:52:50;5.15;;;4.00;;
79792;SDS011;69279;49.072;17.462;2023-08-01T09:55:26;7.05;;;4.43;;
79792;SDS011;69279;49.072;17.462;2023-08-01T09:57:58;7.70;;;4.60;;
79792;SDS011;69279;49.072;17.462;2023-08-01T10:00:27;7.40;;;4.55;;
79792;SDS011;69279;49.072;17.462;2023-08-01T10:02:54;7.40;;;4.35;;
79792;SDS011;69279;49.072;17.462;2023-08-01T10:05:22;6.25;;;4.25;;
79792;SDS011;69279;49.072;17.462;2023-08-01T10:07:48;5.55;;;4.10;;
79792;SDS011;69279;49.072;17.462;2023-08-01T10:10:16;7.88;;;4.65;;
79792;SDS011;69279;49.072;17.462;2023-08-01T10:12:45;5.25;;;4.15;;
79792;SDS011;69279;49.072;17.462;2023-08-01T10:15:15;7.15;;;5.25;;
79792;SDS011;69279;49.072;17.462;2023-08-01T10:17:41;6.78;;;4.25;;
79792;SDS011;69279;49.072;17.462;2023-08-01T10:20:06;6.13;;;4.60;;
79792;SDS011;69279;49.072;17.462;2023-08-01T10:22:32;7.82;;;4.22;;
79792;SDS011;69279;49.072;17.462;2023-08-01T10:24:58;8.98;;;4.53;;
79792;SDS011;69279;49.072;17.462;2023-08-01T10:27:23;7.57;;;5.38;;
79792;SDS011;69279;49.072;17.462;2023-08-01T10:29:58;11.00;;;5.43;;
79792;SDS011;69279;49.072;17.462;2023-08-01T10:32:29;7.50;;;4.45;;
79792;SDS011;69279;49.072;17.462;2023-08-01T10:34:56;7.05;;;4.80;;
79792;SDS011;69279;49.072;17.462;2023-08-01T10:37:22;7.63;;;4.82;;
79792;SDS011;69279;49.072;17.462;2023-08-01T10:39:55;7.28;;;4.72;;
79792;SDS011;69279;49.072;17.462;2023-08-01T10:42:22;6.25;;;4.10;;
79792;SDS011;69279;49.072;17.462;2023-08-01T10:44:47;7.28;;;4.20;;
79792;SDS011;69279;49.072;17.462;2023-08-01T10:47:12;5.20;;;3.72;;
79792;SDS011;69279;49.072;17.462;2023-08-01T10:52:26;5.40;;;3.60;;
79792;SDS011;69279;49.072;17.462;2023-08-01T10:54:57;5.70;;;3.88;;
79792;SDS011;69279;49.072;17.462;2023-08-01T10:57:27;5.80;;;3.72;;
79792;SDS011;69279;49.072;17.462;2023-08-01T10:59:54;5.10;;;3.22;;
79792;SDS011;69279;49.072;17.462;2023-08-01T11:02:21;5.97;;;3.90;;
79792;SDS011;69279;49.072;17.462;2023-08-01T11:05:01;8.40;;;4.03;;
79792;SDS011;69279;49.072;17.462;2023-08-01T11:07:28;7.50;;;3.50;;
79792;SDS011;69279;49.072;17.462;2023-08-01T11:12:30;4.55;;;3.50;;
79792;SDS011;69279;49.072;17.462;2023-08-01T11:15:01;8.15;;;4.47;;
79792;SDS011;69279;49.072;17.462;2023-08-01T11:17:28;6.07;;;3.65;;
79792;SDS011;69279;49.072;17.462;2023-08-01T11:20:27;5.10;;;3.80;;
79792;SDS011;69279;49.072;17.462;2023-08-01T11:25:32;6.90;;;4.60;;
79792;SDS011;69279;49.072;17.462;2023-08-01T11:28:08;6.53;;;4.10;;
79792;SDS011;69279;49.072;17.462;2023-08-01T11:30:36;7.45;;;4.28;;
79792;SDS011;69279;49.072;17.462;2023-08-01T11:33:23;6.70;;;4.47;;
79792;SDS011;69279;49.072;17.462;2023-08-01T11:38:28;8.18;;;4.25;;
79792;SDS011;69279;49.072;17.462;2023-08-01T11:40:54;6.72;;;3.55;;
79792;SDS011;69279;49.072;17.462;2023-08-01T11:43:21;6.60;;;4.05;;
79792;SDS011;69279;49.072;17.462;2023-08-01T11:45:56;5.50;;;3.53;;
79792;SDS011;69279;49.072;17.462;2023-08-01T11:48:25;6.95;;;4.07;;
79792;SDS011;69279;49.072;17.462;2023-08-01T11:51:00;4.85;;;3.35;;
79792;SDS011;69279;49.072;17.462;2023-08-01T11:53:27;6.97;;;4.10;;
79792;SDS011;69279;49.072;17.462;2023-08-01T11:55:53;7.78;;;4.10;;
79792;SDS011;69279;49.072;17.462;2023-08-01T11:58:31;5.40;;;3.85;;
79792;SDS011;69279;49.072;17.462;2023-08-01T12:01:04;7.18;;;4.13;;
79792;SDS011;69279;49.072;17.462;2023-08-01T12:03:30;7.35;;;4.13;;
79792;SDS011;69279;49.072;17.462;2023-08-01T12:06:04;7.47;;;4.38;;
79792;SDS011;69279;49.072;17.462;2023-08-01T12:08:32;8.57;;;4.20;;
79792;SDS011;69279;49.072;17.462;2023-08-01T12:10:59;7.38;;;4.70;;
79792;SDS011;69279;49.072;17.462;2023-08-01T12:13:25;8.70;;;4.93;;
79792;SDS011;69279;49.072;17.462;2023-08-01T12:15:52;7.82;;;4.88;;
79792;SDS011;69279;49.072;17.462;2023-08-01T12:18:26;6.32;;;4.22;;
79792;SDS011;69279;49.072;17.462;2023-08-01T12:20:52;7.30;;;4.50;;
79792;SDS011;69279;49.072;17.462;2023-08-01T12:23:18;8.10;;;4.72;;
79792;SDS011;69279;49.072;17.462;2023-08-01T12:25:44;9.20;;;4.80;;
79792;SDS011;69279;49.072;17.462;2023-08-01T12:28:09;7.70;;;4.50;;
79792;SDS011;69279;49.072;17.462;2023-08-01T12:30:35;7.30;;;4.57;;
79792;SDS011;69279;49.072;17.462;2023-08-01T12:33:00;7.50;;;4.40;;
79792;SDS011;69279;49.072;17.462;2023-08-01T12:35:27;7.72;;;4.43;;
79792;SDS011;69279;49.072;17.462;2023-08-01T12:37:52;7.82;;;4.47;;
79792;SDS011;69279;49.072;17.462;2023-08-01T12:40:18;8.93;;;4.82;;
79792;SDS011;69279;49.072;17.462;2023-08-01T12:42:44;6.68;;;4.70;;
79792;SDS011;69279;49.072;17.462;2023-08-01T12:45:09;6.88;;;4.25;;
79792;SDS011;69279;49.072;17.462;2023-08-01T12:47:35;7.90;;;4.05;;
79792;SDS011;69279;49.072;17.462;2023-08-01T12:50:00;7.93;;;4.22;;
79792;SDS011;69279;49.072;17.462;2023-08-01T12:52:26;7.00;;;4.30;;
79792;SDS011;69279;49.072;17.462;2023-08-01T12:54:52;7.60;;;5.03;;
79792;SDS011;69279;49.072;17.462;2023-08-01T12:57:19;9.43;;;5.20;;
79792;SDS011;69279;49.072;17.462;2023-08-01T12:59:44;7.07;;;4.43;;
79792;SDS011;69279;49.072;17.462;2023-08-01T13:02:09;8.38;;;4.55;;
79792;SDS011;69279;49.072;17.462;2023-08-01T13:04:35;7.43;;;4.40;;
79792;SDS011;69279;49.072;17.462;2023-08-01T13:07:00;6.90;;;4.20;;
79792;SDS011;69279;49.072;17.462;2023-08-01T13:09:26;6.32;;;4.28;;
79792;SDS011;69279;49.072;17.462;2023-08-01T13:11:51;7.65;;;4.07;;
79792;SDS011;69279;49.072;17.462;2023-08-01T13:14:16;7.03;;;4.82;;
79792;SDS011;69279;49.072;17.462;2023-08-01T13:16:42;9.10;;;5.57;;
79792;SDS011;69279;49.072;17.462;2023-08-01T13:19:07;7.63;;;4.53;;
79792;SDS011;69279;49.072;17.462;2023-08-01T13:21:33;5.95;;;4.07;;
79792;SDS011;69279;49.072;17.462;2023-08-01T13:23:59;7.00;;;3.92;;
79792;SDS011;69279;49.072;17.462;2023-08-01T13:26:29;7.60;;;4.63;;
79792;SDS011;69279;49.072;17.462;2023-08-01T13:28:55;8.75;;;4.63;;
79792;SDS011;69279;49.072;17.462;2023-08-01T13:31:21;7.60;;;4.20;;
79792;SDS011;69279;49.072;17.462;2023-08-01T13:33:46;7.25;;;4.40;;
79792;SDS011;69279;49.072;17.462;2023-08-01T13:36:12;7.47;;;4.40;;
79792;SDS011;69279;49.072;17.462;2023-08-01T13:38:37;7.18;;;4.65;;
79792;SDS011;69279;49.072;17.462;2023-08-01T13:41:03;8.20;;;4.07;;
79792;SDS011;69279;49.072;17.462;2023-08-01T13:43:28;7.43;;;4.60;;
79792;SDS011;69279;49.072;17.462;2023-08-01T13:45:53;8.95;;;4.20;;
79792;SDS011;69279;49.072;17.462;2023-08-01T13:48:19;5.30;;;3.45;;
79792;SDS011;69279;49.072;17.462;2023-08-01T13:50:44;8.48;;;4.13;;
79792;SDS011;69279;49.072;17.462;2023-08-01T13:53:10;6.57;;;4.50;;
79792;SDS011;69279;49.072;17.462;2023-08-01T13:55:38;9.20;;;4.57;;
79792;SDS011;69279;49.072;17.462;2023-08-01T13:58:04;8.52;;;4.53;;
79792;SDS011;69279;49.072;17.462;2023-08-01T14:00:30;6.90;;;4.10;;
79792;SDS011;69279;49.072;17.462;2023-08-01T14:02:56;7.63;;;4.53;;
79792;SDS011;69279;49.072;17.462;2023-08-01T14:05:26;7.13;;;4.32;;
79792;SDS011;69279;49.072;17.462;2023-08-01T14:07:52;7.68;;;4.25;;
79792;SDS011;69279;49.072;17.462;2023-08-01T14:10:18;7.43;;;4.13;;
79792;SDS011;69279;49.072;17.462;2023-08-01T14:12:44;9.73;;;4.55;;
79792;SDS011;69279;49.072;17.462;2023-08-01T14:15:09;6.43;;;4.35;;
79792;SDS011;69279;49.072;17.462;2023-08-01T14:17:35;7.43;;;4.32;;
79792;SDS011;69279;49.072;17.462;2023-08-01T14:20:01;7.78;;;4.90;;
79792;SDS011;69279;49.072;17.462;2023-08-01T14:22:29;6.15;;;4.05;;
79792;SDS011;69279;49.072;17.462;2023-08-01T14:24:55;7.00;;;3.55;;
79792;SDS011;69279;49.072;17.462;2023-08-01T14:27:22;6.93;;;4.13;;
79792;SDS011;69279;49.072;17.462;2023-08-01T14:29:49;9.73;;;4.28;;
79792;SDS011;69279;49.072;17.462;2023-08-01T14:32:17;6.43;;;3.47;;
79792;SDS011;69279;49.072;17.462;2023-08-01T14:34:43;5.82;;;4.00;;
79792;SDS011;69279;49.072;17.462;2023-08-01T14:37:08;6.72;;;3.55;;
79792;SDS011;69279;49.072;17.462;2023-08-01T14:39:34;8.05;;;3.60;;
79792;SDS011;69279;49.072;17.462;2023-08-01T14:41:59;7.28;;;3.70;;